Terminal Aerodrome Forecast
Issued by NWS Charleston, WV

Home | Current Version | Previous Version | Text Only | Print | Product List | Glossary On
Versions: 1 2 3 4 5 6 7 8 9 10 11 12 13 14 15 16 17 18 19 20 21 22 23 24 25
482
FTUS41 KRLX 190538
TAFPKB
TAF
KPKB 190538Z 1906/2006 29019G29KT P6SM OVC015
     FM190800 28015G27KT P6SM -SHRA OVC015
     FM191300 28013G22KT P6SM OVC025
     FM192100 28012G20KT P6SM BKN035
     FM200200 27010KT P6SM BKN040
     FM200500 26009KT P6SM SCT050=

USA.gov is the U.S. government's official web portal to all federal, state and local government web resources and services.